createdAt,value
2023-01-11T00:02:27.918Z,76896.22
2023-01-11T00:04:57.388Z,76890.00
2023-01-11T00:07:25.667Z,76890.00
2023-01-11T00:09:53.357Z,76894.16
2023-01-11T00:12:21.313Z,76894.16
2023-01-11T00:14:49.279Z,76894.16
2023-01-11T00:17:17.240Z,76898.31
2023-01-11T00:19:44.978Z,76894.16
2023-01-11T00:22:14.532Z,76896.22
2023-01-11T00:24:42.195Z,76892.06
2023-01-11T00:27:10.141Z,76898.31
2023-01-11T00:29:38.021Z,76898.31
2023-01-11T00:32:06.485Z,76902.47
2023-01-11T00:34:34.170Z,76910.78
2023-01-11T00:37:02.683Z,76910.78
2023-01-11T00:39:31.751Z,76902.47
2023-01-11T00:42:17.160Z,76894.16
2023-01-11T00:45:02.623Z,76894.16
2023-01-11T00:47:48.419Z,76896.22
2023-01-11T00:50:16.533Z,76910.78
2023-01-11T00:52:44.734Z,76921.19
2023-01-11T00:55:13.827Z,76912.84
2023-01-11T00:57:42.068Z,76914.94
2023-01-11T01:00:11.076Z,76910.78
2023-01-11T01:02:39.094Z,76914.94
2023-01-11T01:05:08.036Z,76910.78
2023-01-11T01:07:36.914Z,76906.63
2023-01-11T01:10:05.770Z,76910.78
2023-01-11T01:12:53.539Z,76906.63
2023-01-11T01:15:21.995Z,76914.94
2023-01-11T01:17:53.102Z,76908.69
2023-01-11T01:20:21.091Z,76914.94
2023-01-11T01:22:49.196Z,76910.78
2023-01-11T01:25:17.674Z,76910.78
2023-01-11T01:27:47.063Z,76910.78
2023-01-11T01:30:16.467Z,76906.63
2023-01-11T01:32:44.686Z,76904.53
2023-01-11T01:35:12.467Z,76908.69
2023-01-11T01:37:40.469Z,76906.63
2023-01-11T01:40:09.431Z,76908.69
2023-01-11T01:42:37.377Z,76898.31
2023-01-11T01:45:18.285Z,76910.78
2023-01-11T01:47:53.174Z,76906.63
2023-01-11T01:50:24.247Z,76912.84
2023-01-11T01:52:57.164Z,76904.53
2023-01-11T01:55:29.256Z,76910.78
2023-01-11T01:57:59.490Z,76910.78
2023-01-11T02:00:28.713Z,76902.47
2023-01-11T02:02:58.661Z,76902.47
2023-01-11T02:05:26.920Z,76908.69
2023-01-11T02:07:57.461Z,76912.84
2023-01-11T02:10:27.897Z,76908.69
2023-01-11T02:13:00.807Z,76908.69
2023-01-11T02:15:30.831Z,76898.31
2023-01-11T02:17:59.022Z,76906.63
2023-01-11T02:20:39.555Z,76914.94
2023-01-11T02:23:27.804Z,76912.84
2023-01-11T02:26:31.598Z,76910.78
2023-01-11T02:29:09.945Z,76914.94
2023-01-11T02:31:45.315Z,76908.69
2023-01-11T02:34:41.798Z,76906.63
2023-01-11T02:37:19.507Z,76900.38
2023-01-11T02:39:59.586Z,76898.31
2023-01-11T02:42:53.938Z,76894.16
2023-01-11T02:45:35.439Z,76892.06
2023-01-11T02:48:12.466Z,76881.66
2023-01-11T02:50:46.170Z,76881.66
2023-01-11T02:53:21.195Z,76885.84
2023-01-11T02:55:53.028Z,76890.00
2023-01-11T02:58:25.065Z,76890.00
2023-01-11T03:00:58.406Z,76883.75
2023-01-11T03:03:27.986Z,76877.50
2023-01-11T03:06:00.095Z,76877.50
2023-01-11T03:08:59.918Z,76875.44
2023-01-11T03:11:58.764Z,76877.50
2023-01-11T03:14:35.150Z,76877.50
2023-01-11T03:17:13.346Z,76873.34
2023-01-11T03:19:46.958Z,76869.19
2023-01-11T03:22:26.338Z,76873.34
2023-01-11T03:24:58.900Z,76869.19
2023-01-11T03:31:37.540Z,76877.50
2023-01-11T03:34:17.699Z,76873.34
2023-01-11T03:36:56.065Z,76873.34
2023-01-11T03:39:28.274Z,76879.59
2023-01-11T03:41:59.609Z,76871.28
2023-01-11T03:44:31.562Z,76862.97
2023-01-11T03:47:05.286Z,76860.88
2023-01-11T03:49:38.603Z,76862.97
2023-01-11T03:52:12.155Z,76852.56
2023-01-11T03:54:41.750Z,76856.72
2023-01-11T03:57:14.575Z,76860.88
2023-01-11T03:59:43.094Z,76852.56
2023-01-11T04:02:16.833Z,76848.41
2023-01-11T04:04:46.819Z,76856.72
2023-01-11T04:07:14.874Z,76856.72
2023-01-11T04:09:43.014Z,76865.03
2023-01-11T04:12:11.244Z,76860.88
2023-01-11T04:14:39.338Z,76860.88
2023-01-11T04:18:13.191Z,76856.72
2023-01-11T04:20:42.790Z,76856.72
2023-01-11T04:23:10.900Z,76860.88
2023-01-11T04:25:39.138Z,76856.72
2023-01-11T04:28:07.075Z,76844.25
2023-01-11T04:30:35.981Z,76844.25
2023-01-11T04:33:04.352Z,76835.94
2023-01-11T04:35:32.643Z,76840.09
2023-01-11T04:38:01.792Z,76840.09
2023-01-11T04:40:29.718Z,76844.25
2023-01-11T04:42:56.683Z,76856.72
2023-01-11T04:45:24.823Z,76848.41
2023-01-11T04:47:55.656Z,76842.16
2023-01-11T04:50:24.329Z,76842.16
2023-01-11T04:52:52.506Z,76842.16
2023-01-11T04:55:22.124Z,76844.25
2023-01-11T04:57:49.969Z,76856.72
2023-01-11T05:00:18.874Z,76848.41
2023-01-11T05:02:46.690Z,76852.56
2023-01-11T05:05:14.917Z,76844.25
2023-01-11T05:07:42.747Z,76854.63
2023-01-11T05:10:11.815Z,76846.31
2023-01-11T05:12:41.004Z,76856.72
2023-01-11T05:15:10.351Z,76844.25
2023-01-11T05:17:38.047Z,76852.56
2023-01-11T05:20:07.771Z,76856.72
2023-01-11T05:22:35.592Z,76860.88
2023-01-11T05:25:03.619Z,76856.72
2023-01-11T05:27:31.461Z,76852.56
2023-01-11T05:30:00.943Z,76846.31
2023-01-11T05:32:28.716Z,76854.63
2023-01-11T05:34:56.840Z,76852.56
2023-01-11T05:37:24.695Z,76852.56
2023-01-11T05:39:52.675Z,76852.56
2023-01-11T05:42:21.662Z,76852.56
2023-01-11T05:45:07.992Z,76852.56
2023-01-11T05:47:37.273Z,76860.88
2023-01-11T05:50:06.159Z,76862.97
2023-01-11T05:52:33.916Z,76869.19
2023-01-11T05:55:02.079Z,76865.03
2023-01-11T05:57:30.142Z,76852.56
2023-01-11T05:59:58.298Z,76850.47
2023-01-11T06:02:26.317Z,76852.56
2023-01-11T06:04:55.907Z,76850.47
2023-01-11T06:07:24.986Z,76854.63
2023-01-11T06:09:53.437Z,76860.88
2023-01-11T06:12:21.172Z,76860.88
2023-01-11T06:14:49.255Z,76858.78
2023-01-11T06:17:17.146Z,76873.34
2023-01-11T06:19:45.331Z,76877.50
2023-01-11T06:22:14.347Z,76871.28
2023-01-11T06:24:42.445Z,76873.34
2023-01-11T06:27:10.311Z,76860.88
2023-01-11T06:29:38.276Z,76865.03
2023-01-11T06:32:07.107Z,76858.78
2023-01-11T06:34:35.241Z,76865.03
2023-01-11T06:37:02.991Z,76877.50
2023-01-11T06:39:32.494Z,76865.03
2023-01-11T06:42:00.320Z,76869.19
2023-01-11T06:44:28.274Z,76883.75
2023-01-11T06:46:56.088Z,76883.75
2023-01-11T06:49:24.404Z,76885.84
2023-01-11T06:51:52.111Z,76881.66
2023-01-11T06:54:23.022Z,76890.00
2023-01-11T06:56:52.199Z,76883.75
2023-01-11T06:59:20.290Z,76877.50
2023-01-11T07:01:48.287Z,76892.06
2023-01-11T07:04:17.122Z,76885.84
2023-01-11T07:06:45.050Z,76881.66
2023-01-11T07:09:13.450Z,76885.84
2023-01-11T07:11:41.143Z,76877.50
2023-01-11T07:14:12.074Z,76865.03
2023-01-11T07:16:39.942Z,76860.88
2023-01-11T07:19:08.223Z,76860.88
2023-01-11T07:21:36.042Z,76877.50
2023-01-11T07:24:04.304Z,76881.66
2023-01-11T07:26:33.030Z,76879.59
2023-01-11T07:29:01.156Z,76892.06
2023-01-11T07:31:30.384Z,76883.75
2023-01-11T07:33:58.427Z,76883.75
2023-01-11T07:36:26.271Z,76877.50
2023-01-11T07:38:54.343Z,76873.34
2023-01-11T07:41:39.273Z,76879.59
2023-01-11T07:44:07.678Z,76881.66
2023-01-11T07:46:37.001Z,76869.19
2023-01-11T07:49:04.957Z,76852.56
2023-01-11T07:51:32.755Z,76827.59
2023-01-11T07:54:02.591Z,76823.44
2023-01-11T07:56:30.803Z,76825.53
2023-01-11T07:58:58.929Z,76815.13
2023-01-11T08:01:26.998Z,76802.66
2023-01-11T08:03:56.308Z,76786.03
2023-01-11T08:06:24.163Z,76781.88
2023-01-11T08:08:52.222Z,76769.38
2023-01-11T08:11:37.758Z,76756.91
2023-01-11T08:14:23.619Z,76723.66
2023-01-11T08:16:51.883Z,76721.56
2023-01-11T08:19:21.547Z,76702.84
2023-01-11T08:21:50.993Z,76690.38
2023-01-11T08:24:19.036Z,76669.59
2023-01-11T08:26:47.068Z,76661.25
2023-01-11T08:29:15.115Z,76665.44
2023-01-11T08:31:44.960Z,76640.47
2023-01-11T08:34:13.692Z,76640.47
2023-01-11T08:36:42.790Z,76623.84
2023-01-11T08:39:11.381Z,76607.22
2023-01-11T08:41:39.402Z,76598.88
2023-01-11T08:44:09.231Z,76584.34
2023-01-11T08:46:38.049Z,76561.47
2023-01-11T08:49:11.913Z,76553.16
2023-01-11T08:51:40.133Z,76536.50
2023-01-11T08:54:13.181Z,76532.34
2023-01-11T08:56:41.347Z,76507.41
2023-01-11T08:59:11.283Z,76507.41
2023-01-11T09:01:39.290Z,76486.63
2023-01-11T09:04:23.118Z,76459.59
2023-01-11T09:06:51.729Z,76445.03
2023-01-11T09:09:21.087Z,76428.41
2023-01-11T09:11:54.923Z,76415.91
2023-01-11T09:14:24.158Z,76403.44
2023-01-11T09:16:51.981Z,76403.44
2023-01-11T09:19:20.306Z,76407.59
2023-01-11T09:21:48.499Z,76409.69
2023-01-11T09:24:17.538Z,76399.28
2023-01-11T09:26:46.648Z,76411.75
2023-01-11T09:29:15.152Z,76411.75
2023-01-11T09:31:42.923Z,76390.97
2023-01-11T09:34:12.684Z,76378.50
2023-01-11T09:36:41.046Z,76345.22
2023-01-11T09:39:14.468Z,76330.69
2023-01-11T09:42:11.105Z,76345.22
2023-01-11T09:44:47.012Z,76345.22
2023-01-11T09:47:20.014Z,76334.84
2023-01-11T09:49:54.438Z,76322.38
2023-01-11T09:52:28.944Z,76320.28
2023-01-11T09:54:59.108Z,76324.44
2023-01-11T09:57:43.794Z,76307.81
2023-01-11T10:00:21.633Z,76324.44
2023-01-11T10:03:13.327Z,76307.81
2023-01-11T10:05:56.498Z,76291.19
2023-01-11T10:18:26.286Z,76220.50
2023-01-11T10:18:41.880Z,76197.63
2023-01-11T10:20:38.492Z,76191.38
2023-01-11T10:23:12.111Z,76183.06
2023-01-11T10:25:50.460Z,76178.91
2023-01-11T10:28:26.851Z,76183.06
2023-01-11T10:31:11.257Z,76149.81
2023-01-11T10:33:57.386Z,76133.19
2023-01-11T10:36:51.643Z,76093.69
2023-01-11T10:39:46.549Z,76083.28
2023-01-11T10:42:21.589Z,76079.13
2023-01-11T10:45:00.024Z,76087.44
2023-01-11T10:47:37.053Z,76074.97
2023-01-11T10:50:23.956Z,76087.44
2023-01-11T10:52:57.483Z,76037.53
2023-01-11T10:58:15.573Z,76023.00
2023-01-11T11:00:51.089Z,75998.03
2023-01-11T11:03:36.659Z,76041.69
2023-01-11T11:06:10.077Z,76045.84
2023-01-11T11:08:48.599Z,76104.06
2023-01-11T11:11:22.277Z,76083.28
2023-01-11T11:13:57.022Z,76058.34
2023-01-11T11:16:40.800Z,76045.84
2023-01-11T11:19:16.247Z,76070.81
2023-01-11T11:21:44.837Z,76110.31
2023-01-11T11:24:22.268Z,76120.69
2023-01-11T11:26:55.151Z,76097.84
2023-01-11T11:29:30.809Z,76124.84
2023-01-11T11:32:00.833Z,76118.63
2023-01-11T11:34:31.036Z,76112.38
2023-01-11T11:37:01.523Z,76158.13
2023-01-11T11:39:31.756Z,76137.34
2023-01-11T11:42:07.164Z,76126.94
2023-01-11T11:44:35.561Z,76129.00
2023-01-11T11:47:05.401Z,76108.22
2023-01-11T11:49:36.629Z,76112.38
2023-01-11T11:52:06.706Z,76116.53
2023-01-11T11:54:37.794Z,76133.19
2023-01-11T11:57:15.907Z,76129.00
2023-01-11T11:59:47.286Z,76133.19
2023-01-11T12:02:25.170Z,76149.81
2023-01-11T12:04:57.175Z,76162.28
2023-01-11T12:07:28.453Z,76166.44
2023-01-11T12:09:59.563Z,76151.88
2023-01-11T12:12:29.524Z,76143.56
2023-01-11T12:15:19.679Z,76145.66
2023-01-11T12:17:47.969Z,76145.66
2023-01-11T12:20:31.209Z,76149.81
2023-01-11T12:23:18.144Z,76162.28
2023-01-11T12:26:08.506Z,76149.81
2023-01-11T12:29:00.894Z,76149.81
2023-01-11T12:31:39.370Z,76141.50
2023-01-11T12:34:16.854Z,76149.81
2023-01-11T12:36:56.215Z,76145.66
2023-01-11T12:39:36.970Z,76153.97
2023-01-11T12:42:23.870Z,76162.28
2023-01-11T12:45:04.294Z,76174.75
2023-01-11T12:47:52.338Z,76158.13
2023-01-11T12:50:24.882Z,76168.50
2023-01-11T12:53:08.755Z,76156.03
2023-01-11T12:55:55.378Z,76162.28
2023-01-11T12:58:31.054Z,76149.81
2023-01-11T13:01:20.892Z,76149.81
2023-01-11T13:04:18.207Z,76133.19
2023-01-11T13:06:53.689Z,76133.19
2023-01-11T13:09:34.114Z,76129.00
2023-01-11T13:12:11.154Z,76120.69
2023-01-11T13:15:05.948Z,76116.53
2023-01-11T13:17:41.807Z,76126.94
2023-01-11T13:20:25.129Z,76124.84
2023-01-11T13:22:59.570Z,76116.53
2023-01-11T13:25:31.493Z,76116.53
2023-01-11T13:28:06.663Z,76124.84
2023-01-11T13:30:35.255Z,76133.19
2023-01-11T13:33:07.294Z,76158.13
2023-01-11T13:35:40.393Z,76172.69
2023-01-11T13:38:16.702Z,76162.28
2023-01-11T13:40:49.747Z,76158.13
2023-01-11T13:43:22.249Z,76158.13
2023-01-11T13:45:57.068Z,76162.28
2023-01-11T13:48:28.282Z,76168.50
2023-01-11T13:51:02.858Z,76178.91
2023-01-11T13:53:38.364Z,76187.22
2023-01-11T13:56:13.249Z,76210.09
2023-01-11T13:58:52.916Z,76216.34
2023-01-11T14:01:30.527Z,76208.00
2023-01-11T14:04:05.869Z,76193.47
2023-01-11T14:06:51.410Z,76187.22
2023-01-11T14:09:45.269Z,76205.94
2023-01-11T14:12:25.864Z,76216.34
2023-01-11T14:15:11.363Z,76224.66
2023-01-11T14:17:57.107Z,76237.13
2023-01-11T14:20:33.362Z,76241.28
2023-01-11T14:23:11.230Z,76247.53
2023-01-11T14:26:02.180Z,76222.56
2023-01-11T14:28:52.002Z,76222.56
2023-01-11T14:31:48.390Z,76241.28
2023-01-11T14:34:52.855Z,76249.59
2023-01-11T14:37:52.759Z,76274.53
2023-01-11T14:40:40.667Z,76249.59
2023-01-11T14:43:28.610Z,76280.78
2023-01-11T14:46:17.482Z,76299.50
2023-01-11T14:48:53.414Z,76309.88
2023-01-11T14:51:33.738Z,76324.44
2023-01-11T14:54:07.959Z,76332.75
2023-01-11T14:56:50.341Z,76345.22
2023-01-11T14:59:36.845Z,76353.56
2023-01-11T15:02:15.913Z,76374.34
2023-01-11T15:05:05.356Z,76395.13
2023-01-11T15:07:40.919Z,76395.13
2023-01-11T15:10:41.814Z,76395.13
2023-01-11T15:13:15.278Z,76399.28
2023-01-11T15:16:01.267Z,76388.91
2023-01-11T15:18:31.261Z,76374.34
2023-01-11T15:21:04.887Z,76390.97
2023-01-11T15:23:36.222Z,76411.75
2023-01-11T15:26:06.649Z,76411.75
2023-01-11T15:28:49.297Z,76409.69
2023-01-11T15:31:34.493Z,76397.22
2023-01-11T15:34:06.949Z,76413.84
2023-01-11T15:36:56.239Z,76436.72
2023-01-11T15:39:34.438Z,76434.63
2023-01-11T15:42:21.568Z,76428.41
2023-01-11T15:45:08.296Z,76420.09
2023-01-11T15:47:55.926Z,76436.72
2023-01-11T15:50:48.416Z,76453.34
2023-01-11T15:53:55.159Z,76465.81
2023-01-11T15:56:55.778Z,76480.38
2023-01-11T15:59:54.289Z,76494.94
2023-01-11T16:02:48.962Z,76515.72
2023-01-11T16:05:22.366Z,76524.03
2023-01-11T16:08:00.537Z,76544.84
2023-01-11T16:10:49.599Z,76557.31
2023-01-11T16:13:41.784Z,76557.31
2023-01-11T16:16:18.478Z,76563.53
2023-01-11T16:18:50.397Z,76573.94
2023-01-11T16:21:21.272Z,76573.94
2023-01-11T16:23:50.776Z,76584.34
2023-01-11T16:26:22.253Z,76578.09
2023-01-11T16:28:51.769Z,76578.09
2023-01-11T16:31:20.450Z,76576.00
2023-01-11T16:33:49.822Z,76573.94
2023-01-11T16:36:21.006Z,76576.00
2023-01-11T16:38:57.591Z,76582.25
2023-01-11T16:41:29.960Z,76603.03
2023-01-11T16:44:03.025Z,76592.66
2023-01-11T16:47:16.843Z,76590.56
2023-01-11T16:49:50.026Z,76598.88
2023-01-11T16:52:38.987Z,76623.84
2023-01-11T16:55:25.000Z,76607.22
2023-01-11T16:57:57.370Z,76615.53
2023-01-11T17:00:36.245Z,76615.53
2023-01-11T17:03:20.717Z,76632.16
2023-01-11T17:06:00.398Z,76623.84
2023-01-11T17:08:31.682Z,76611.38
2023-01-11T17:11:06.140Z,76615.53
2023-01-11T17:14:18.905Z,76632.16
2023-01-11T17:16:48.922Z,76636.31
2023-01-11T17:19:21.028Z,76630.06
2023-01-11T17:21:51.232Z,76640.47
2023-01-11T17:24:23.856Z,76634.22
2023-01-11T17:26:55.098Z,76642.56
2023-01-11T17:29:29.366Z,76646.72
2023-01-11T17:32:00.316Z,76652.94
2023-01-11T17:34:31.992Z,76677.91
2023-01-11T17:37:00.415Z,76671.66
2023-01-11T17:39:32.698Z,76673.75
2023-01-11T17:42:22.275Z,76673.75
2023-01-11T17:45:09.837Z,76698.69
2023-01-11T17:47:40.117Z,76711.16
2023-01-11T17:50:21.813Z,76717.41
2023-01-11T17:52:55.473Z,76736.13
2023-01-11T17:55:26.140Z,76759.00
2023-01-11T17:58:17.390Z,76781.88
2023-01-11T18:01:03.427Z,76763.16
2023-01-11T18:03:32.202Z,76748.59
2023-01-11T18:06:11.736Z,76748.59
2023-01-11T18:08:40.110Z,76748.59
2023-01-11T18:11:08.047Z,76744.44
2023-01-11T18:13:37.182Z,76734.03
2023-01-11T18:16:05.837Z,76727.81
2023-01-11T18:18:42.802Z,76719.47
2023-01-11T18:21:31.567Z,76717.41
2023-01-11T18:24:25.101Z,76719.47
2023-01-11T18:27:06.909Z,76727.81
2023-01-11T18:29:50.266Z,76723.66
2023-01-11T18:32:19.168Z,76688.28
2023-01-11T18:34:53.287Z,76659.19
2023-01-11T18:37:21.962Z,76652.94
2023-01-11T18:39:51.935Z,76634.22
2023-01-11T18:42:24.077Z,76673.75
2023-01-11T18:44:53.376Z,76711.16
2023-01-11T18:47:23.432Z,76756.91
2023-01-11T18:49:52.607Z,76792.25
2023-01-11T18:52:24.536Z,76813.06
2023-01-11T18:54:52.459Z,76806.81
2023-01-11T18:57:22.777Z,76786.03
2023-01-11T18:59:52.167Z,76779.78
2023-01-11T19:02:25.239Z,76773.53
2023-01-11T19:04:55.110Z,76779.78
2023-01-11T19:07:23.975Z,76769.38
2023-01-11T19:09:52.256Z,76773.53
2023-01-11T19:12:20.479Z,76781.88
2023-01-11T19:14:48.189Z,76786.03
2023-01-11T19:17:16.885Z,76786.03
2023-01-11T19:19:46.215Z,76763.16
2023-01-11T19:22:14.440Z,76765.22
2023-01-11T19:24:42.276Z,76756.91
2023-01-11T19:27:10.354Z,76752.75
2023-01-11T19:29:38.031Z,76748.59
2023-01-11T19:32:06.875Z,76748.59
2023-01-11T19:34:36.069Z,76761.06
2023-01-11T19:37:05.389Z,76754.84
2023-01-11T19:39:33.166Z,76740.28
2023-01-11T19:42:02.891Z,76719.47
2023-01-11T19:44:32.271Z,76707.00
2023-01-11T19:47:10.968Z,76723.66
2023-01-11T19:49:40.030Z,76715.31
2023-01-11T19:52:13.364Z,76707.00
2023-01-11T19:54:42.782Z,76698.69
2023-01-11T19:57:11.793Z,76698.69
2023-01-11T19:59:39.578Z,76684.13
2023-01-11T20:02:08.236Z,76665.44
2023-01-11T20:04:37.070Z,76657.09
2023-01-11T20:07:05.513Z,76657.09
2023-01-11T20:09:37.460Z,76650.88
2023-01-11T20:12:05.826Z,76648.78
2023-01-11T20:14:33.914Z,76640.47
2023-01-11T20:17:02.159Z,76623.84
2023-01-11T20:19:29.973Z,76630.06
2023-01-11T20:21:58.053Z,76607.22
2023-01-11T20:24:29.421Z,76573.94
2023-01-11T20:27:01.271Z,76607.22
2023-01-11T20:29:29.607Z,76628.00
2023-01-11T20:32:13.435Z,76636.31
2023-01-11T20:34:46.379Z,76657.09
2023-01-11T20:37:14.992Z,76690.38
2023-01-11T20:39:42.687Z,76715.31
2023-01-11T20:42:12.828Z,76723.66
2023-01-11T20:44:40.580Z,76731.97
2023-01-11T20:47:08.522Z,76738.19
2023-01-11T20:49:36.504Z,76731.97
2023-01-11T20:52:04.937Z,76723.66
2023-01-11T20:54:32.730Z,76736.13
2023-01-11T20:57:05.588Z,76752.75
2023-01-11T20:59:34.847Z,76777.69
2023-01-11T21:02:03.171Z,76796.41
2023-01-11T21:04:31.291Z,76819.28
2023-01-11T21:06:59.245Z,76823.44
2023-01-11T21:09:27.294Z,76808.91
2023-01-11T21:11:55.377Z,76802.66
2023-01-11T21:14:24.023Z,76802.66
2023-01-11T21:16:55.158Z,76810.97
2023-01-11T21:19:23.767Z,76815.13
2023-01-11T21:21:51.851Z,76802.66
2023-01-11T21:24:20.725Z,76769.38
2023-01-11T21:26:48.960Z,76802.66
2023-01-11T21:29:16.695Z,76781.88
2023-01-11T21:31:44.953Z,76777.69
2023-01-11T21:34:14.758Z,76794.34
2023-01-11T21:36:44.359Z,76771.47
2023-01-11T21:39:14.748Z,76725.72
2023-01-11T21:41:59.652Z,76704.94
2023-01-11T21:44:33.171Z,76715.31
2023-01-11T21:47:02.555Z,76738.19
2023-01-11T21:49:32.560Z,76752.75
2023-01-11T21:52:00.604Z,76731.97
2023-01-11T21:54:28.517Z,76731.97
2023-01-11T21:56:56.874Z,76707.00
2023-01-11T21:59:25.429Z,76715.31
2023-01-11T22:01:53.582Z,76707.00
2023-01-11T22:04:22.167Z,76715.31
2023-01-11T22:06:56.154Z,76702.84
2023-01-11T22:09:26.654Z,76698.69
2023-01-11T22:11:55.346Z,76698.69
2023-01-11T22:14:23.384Z,76707.00
2023-01-11T22:16:51.805Z,76715.31
2023-01-11T22:19:20.176Z,76711.16
2023-01-11T22:21:48.557Z,76677.91
2023-01-11T22:24:17.979Z,76636.31
2023-01-11T22:26:46.067Z,76632.16
2023-01-11T22:29:15.032Z,76615.53
2023-01-11T22:31:47.616Z,76598.88
2023-01-11T22:34:16.806Z,76598.88
2023-01-11T22:36:46.125Z,76567.69
2023-01-11T22:39:15.504Z,76573.94
2023-01-11T22:41:45.953Z,76600.97
2023-01-11T22:44:14.225Z,76605.13
2023-01-11T22:46:42.604Z,76611.38
2023-01-11T22:49:11.370Z,76605.13
2023-01-11T22:51:40.893Z,76590.56
2023-01-11T22:54:09.198Z,76571.84
2023-01-11T22:56:37.408Z,76569.78
2023-01-11T22:59:06.501Z,76584.34
2023-01-11T23:01:36.317Z,76590.56
2023-01-11T23:04:05.254Z,76590.56
2023-01-11T23:06:35.028Z,76598.88
2023-01-11T23:09:03.217Z,76596.81
2023-01-11T23:11:53.960Z,76600.97
2023-01-11T23:14:23.462Z,76580.19
2023-01-11T23:16:51.627Z,76586.41
2023-01-11T23:19:20.541Z,76615.53
2023-01-11T23:21:49.037Z,76628.00
2023-01-11T23:24:18.026Z,76640.47
2023-01-11T23:26:46.173Z,76661.25
2023-01-11T23:29:14.235Z,76679.97
2023-01-11T23:31:44.222Z,76700.78
2023-01-11T23:34:13.161Z,76731.97
2023-01-11T23:36:43.633Z,76742.34
2023-01-11T23:39:14.020Z,76765.22
2023-01-11T23:41:59.748Z,76777.69
2023-01-11T23:44:28.118Z,76771.47
2023-01-11T23:47:14.995Z,76771.47
2023-01-11T23:49:43.979Z,76773.53
2023-01-11T23:52:12.503Z,76744.44
2023-01-11T23:54:40.282Z,76740.28
2023-01-11T23:57:09.243Z,76719.47
2023-01-11T23:59:37.144Z,76709.09
